Time;durP1;ratioP1;P1;durP2;ratioP2;P2;SDS_P1;SDS_P2;PMS_P1;PMS_P2;Temp;Humidity;BMP_temperature;BMP_pressure;BME280_temperature;BME280_humidity;BME280_pressure;Samples;Min_cycle;Max_cycle;Signal;HPM_P1;HPM_P2
2022/10/01 00:00:19;;;;;;;7.30;5.70;;;11.80;99.90;;;;;;5051058;28;20576;-63
2022/10/01 00:02:45;;;;;;;9.13;6.03;;;11.70;99.90;;;;;;5051475;28;20045;-62
2022/10/01 00:05:11;;;;;;;7.88;6.38;;;11.80;99.90;;;;;;5037592;28;20484;-63
2022/10/01 00:07:38;;;;;;;9.65;6.28;;;11.70;99.90;;;;;;5049828;28;20052;-63
2022/10/01 00:10:05;;;;;;;8.48;6.80;;;11.70;99.90;;;;;;5050897;28;20072;-62
2022/10/01 00:12:30;;;;;;;8.10;6.72;;;11.70;99.90;;;;;;5051057;28;20056;-63
2022/10/01 00:14:56;;;;;;;7.85;7.05;;;11.70;99.90;;;;;;5051138;28;20111;-63
2022/10/01 00:17:21;;;;;;;7.93;7.10;;;11.60;99.90;;;;;;5050720;28;20040;-62
2022/10/01 00:19:47;;;;;;;8.25;7.15;;;11.60;99.90;;;;;;5051160;28;20036;-62
2022/10/01 00:22:12;;;;;;;7.93;7.10;;;11.60;99.90;;;;;;5051072;28;20028;-63
2022/10/01 00:24:38;;;;;;;9.18;7.38;;;11.60;99.90;;;;;;5051606;28;20043;-63
2022/10/01 00:27:04;;;;;;;8.88;7.80;;;11.50;99.90;;;;;;5050705;28;20139;-62
2022/10/01 00:29:30;;;;;;;8.68;7.80;;;11.50;99.90;;;;;;5051201;28;20064;-71
2022/10/01 00:31:57;;;;;;;9.95;7.90;;;11.50;99.90;;;;;;5050855;28;20051;-62
2022/10/01 00:34:22;;;;;;;11.15;7.60;;;11.50;99.90;;;;;;5051498;28;20033;-62
2022/10/01 00:36:48;;;;;;;9.90;8.27;;;11.50;99.90;;;;;;5050842;28;20433;-64
2022/10/01 00:39:14;;;;;;;8.77;7.88;;;11.40;99.90;;;;;;5050360;28;20163;-62
2022/10/01 00:41:41;;;;;;;8.68;7.68;;;11.50;99.90;;;;;;5049709;28;20127;-62
2022/10/01 00:44:28;;;;;;;11.32;8.32;;;11.40;99.90;;;;;;5050933;28;20486;-62
2022/10/01 00:47:01;;;;;;;11.32;8.40;;;11.40;99.90;;;;;;5051111;28;20045;-63
2022/10/01 00:49:29;;;;;;;10.63;9.10;;;11.40;99.90;;;;;;5051046;28;20044;-63
2022/10/01 00:51:57;;;;;;;12.00;8.80;;;11.40;99.90;;;;;;5050709;28;20349;-62
2022/10/01 00:54:30;;;;;;;10.23;8.45;;;11.40;99.90;;;;;;5051229;28;20041;-62
2022/10/01 00:56:58;;;;;;;9.32;8.40;;;11.40;99.90;;;;;;5050619;28;20045;-62
2022/10/01 00:59:24;;;;;;;9.63;8.63;;;11.40;99.90;;;;;;5050766;28;20358;-63
2022/10/01 01:01:50;;;;;;;10.13;8.73;;;11.40;99.90;;;;;;5050938;28;20179;-62
2022/10/01 01:04:15;;;;;;;9.95;8.88;;;11.40;99.90;;;;;;5050761;28;20493;-62
2022/10/01 01:06:54;;;;;;;11.23;9.02;;;11.30;99.90;;;;;;5050501;28;20120;-62
2022/10/01 01:09:30;;;;;;;10.45;8.88;;;11.30;99.90;;;;;;5050802;28;20499;-63
2022/10/01 01:12:10;;;;;;;10.30;9.05;;;11.30;99.90;;;;;;5049191;28;20037;-63
2022/10/01 01:14:42;;;;;;;10.60;9.45;;;11.30;99.90;;;;;;5051019;28;20170;-62
2022/10/01 01:17:18;;;;;;;10.27;8.98;;;11.30;99.90;;;;;;5050120;28;20458;-63
2022/10/01 01:20:07;;;;;;;13.00;9.15;;;11.30;99.90;;;;;;5050876;28;20095;-62
2022/10/01 01:22:39;;;;;;;12.77;9.02;;;11.30;99.90;;;;;;5048457;28;20523;-62
2022/10/01 01:25:32;;;;;;;10.55;9.00;;;11.30;99.90;;;;;;5054677;28;20121;-62
2022/10/01 01:28:23;;;;;;;10.70;9.60;;;11.30;99.90;;;;;;5054613;28;20037;-62
2022/10/01 01:30:54;;;;;;;10.25;8.23;;;11.30;99.90;;;;;;5054641;28;20490;-61
2022/10/01 01:33:22;;;;;;;10.02;8.43;;;11.30;99.90;;;;;;5054967;28;20055;-62
2022/10/01 01:35:57;;;;;;;9.20;8.30;;;11.30;99.90;;;;;;5054435;28;20486;-61
2022/10/01 01:38:27;;;;;;;8.88;7.97;;;11.30;99.90;;;;;;5053152;28;20044;-61
2022/10/01 01:40:55;;;;;;;9.88;8.30;;;11.30;99.90;;;;;;5053771;28;20036;-62
2022/10/01 01:43:30;;;;;;;9.60;8.63;;;11.20;99.90;;;;;;5053979;28;20033;-61
2022/10/01 01:45:58;;;;;;;;;;;11.30;99.90;;;;;;5054578;28;20087;-61
2022/10/01 01:48:25;;;;;;;8.95;7.78;;;11.20;99.90;;;;;;5053560;28;19916;-62
2022/10/01 01:50:56;;;;;;;8.93;8.02;;;11.30;99.90;;;;;;5053514;28;20448;-62
2022/10/01 01:53:22;;;;;;;12.32;7.90;;;11.20;99.90;;;;;;5041107;28;20029;-61
2022/10/01 01:55:49;;;;;;;11.23;8.10;;;11.30;99.90;;;;;;5054591;28;20070;-61
2022/10/01 01:58:17;;;;;;;11.77;8.18;;;11.30;99.90;;;;;;5052672;28;20048;-61
2022/10/01 02:00:43;;;;;;;9.50;8.18;;;11.20;99.90;;;;;;5053890;28;20029;-61
2022/10/01 02:03:10;;;;;;;9.43;8.43;;;11.20;99.90;;;;;;5053759;28;20043;-61
2022/10/01 02:05:55;;;;;;;8.13;6.93;;;11.30;99.90;;;;;;5053096;28;20442;-60
2022/10/01 02:08:51;;;;;;;8.85;7.70;;;11.20;99.90;;;;;;5052933;28;20322;-63
2022/10/01 02:11:37;;;;;;;8.45;7.20;;;11.20;99.90;;;;;;5049663;28;20056;-61
2022/10/01 02:14:34;;;;;;;7.97;7.15;;;11.20;99.90;;;;;;5053442;28;20446;-61
2022/10/01 02:17:26;;;;;;;8.38;6.70;;;11.20;99.90;;;;;;5052579;28;20083;-61
2022/10/01 02:20:01;;;;;;;7.55;6.78;;;11.20;99.90;;;;;;5036399;28;20052;-60
2022/10/01 02:22:48;;;;;;;7.03;6.13;;;11.30;99.90;;;;;;5053009;28;20041;-61
2022/10/01 02:25:17;;;;;;;7.93;6.28;;;11.30;99.90;;;;;;5053095;28;20428;-60
2022/10/01 02:27:52;;;;;;;7.30;6.60;;;11.30;99.90;;;;;;5052923;28;20047;-60
2022/10/01 02:30:18;;;;;;;7.30;6.22;;;11.30;99.90;;;;;;5053408;28;20040;-60
2022/10/01 02:32:46;;;;;;;6.32;5.72;;;11.30;99.90;;;;;;5052538;28;20323;-61
2022/10/01 02:35:16;;;;;;;7.72;6.03;;;11.40;99.90;;;;;;5052886;28;20045;-60
2022/10/01 02:37:44;;;;;;;7.03;5.65;;;11.40;99.90;;;;;;5051941;28;20049;-61
2022/10/01 02:40:14;;;;;;;6.05;4.50;;;11.40;99.90;;;;;;5052770;28;20045;-62
2022/10/01 02:42:45;;;;;;;6.75;5.22;;;11.40;99.90;;;;;;5052832;28;20041;-61
2022/10/01 02:45:14;;;;;;;5.10;4.60;;;11.40;99.90;;;;;;5052874;28;20683;-60
2022/10/01 02:47:49;;;;;;;6.70;4.63;;;11.40;99.90;;;;;;5052079;28;20516;-60
2022/10/01 02:50:15;;;;;;;4.78;4.00;;;11.40;99.90;;;;;;5053504;28;20136;-61
2022/10/01 02:53:03;;;;;;;5.22;4.28;;;11.40;99.90;;;;;;5052875;28;20514;-61
2022/10/01 02:55:35;;;;;;;5.22;4.40;;;11.40;99.90;;;;;;5053272;28;20358;-62
2022/10/01 02:58:00;;;;;;;5.25;4.55;;;11.40;99.90;;;;;;5052833;28;20048;-62
2022/10/01 03:00:27;;;;;;;6.70;4.53;;;11.40;99.90;;;;;;5052288;28;20090;-60
2022/10/01 03:02:53;;;;;;;5.05;4.28;;;11.40;99.90;;;;;;5052088;28;20124;-60
2022/10/01 03:05:19;;;;;;;7.45;4.38;;;11.50;99.90;;;;;;5052821;28;20107;-61
2022/10/01 03:07:45;;;;;;;5.35;4.40;;;11.40;99.90;;;;;;5052135;28;20091;-60
2022/10/01 03:10:12;;;;;;;6.20;4.35;;;11.40;99.90;;;;;;5052901;28;20037;-61
2022/10/01 03:12:43;;;;;;;4.90;4.05;;;11.40;99.90;;;;;;5052197;28;20080;-61
2022/10/01 03:15:13;;;;;;;6.20;4.57;;;11.50;99.90;;;;;;5052228;28;20047;-61
2022/10/01 03:17:39;;;;;;;6.20;4.70;;;11.40;99.90;;;;;;5051797;28;20060;-61
2022/10/01 03:20:06;;;;;;;5.78;4.60;;;11.40;99.90;;;;;;5052457;28;20033;-61
2022/10/01 03:22:32;;;;;;;5.90;4.60;;;11.30;99.90;;;;;;5052148;28;20041;-61
2022/10/01 03:24:58;;;;;;;5.22;4.60;;;11.30;99.90;;;;;;5052287;28;20450;-60
2022/10/01 03:27:23;;;;;;;5.50;4.90;;;11.40;99.90;;;;;;5050512;28;20047;-61
2022/10/01 03:29:49;;;;;;;5.03;4.53;;;11.40;99.90;;;;;;5052461;28;20118;-61
2022/10/01 03:32:15;;;;;;;6.20;4.75;;;11.40;99.90;;;;;;5051860;28;20049;-61
2022/10/01 03:34:41;;;;;;;5.30;4.75;;;11.30;99.90;;;;;;5052058;28;20075;-61
2022/10/01 03:37:07;;;;;;;5.80;4.60;;;11.40;99.90;;;;;;5050348;28;20068;-61
2022/10/01 03:39:33;;;;;;;5.13;4.20;;;11.40;99.90;;;;;;5051896;28;20057;-62
2022/10/01 03:41:58;;;;;;;6.38;4.20;;;11.40;99.90;;;;;;5051546;28;20075;-62
2022/10/01 03:44:24;;;;;;;5.82;4.85;;;11.40;99.90;;;;;;5050970;28;20033;-62
2022/10/01 03:46:50;;;;;;;4.78;4.28;;;11.40;99.90;;;;;;5050463;28;20071;-61
2022/10/01 03:49:16;;;;;;;4.45;3.90;;;11.40;99.90;;;;;;5051578;28;20033;-62
2022/10/01 03:51:44;;;;;;;5.05;3.75;;;11.40;99.90;;;;;;5050664;28;20040;-61
2022/10/01 03:54:10;;;;;;;4.72;3.60;;;11.40;99.90;;;;;;5052285;28;20048;-62
2022/10/01 03:56:37;;;;;;;5.20;3.03;;;11.40;99.90;;;;;;5050607;28;20048;-61
2022/10/01 03:59:02;;;;;;;5.05;3.60;;;11.50;99.90;;;;;;5051689;28;20049;-61
2022/10/01 04:01:29;;;;;;;3.00;2.70;;;11.40;99.90;;;;;;5051610;28;20044;-61
2022/10/01 04:03:54;;;;;;;4.03;3.00;;;11.50;99.90;;;;;;5052032;28;20068;-61
2022/10/01 04:06:20;;;;;;;3.85;3.00;;;11.40;99.90;;;;;;5051418;28;20037;-61
2022/10/01 04:08:46;;;;;;;3.05;2.75;;;11.50;99.90;;;;;;5051570;28;20036;-63
2022/10/01 04:11:11;;;;;;;2.92;2.40;;;11.40;99.90;;;;;;5051617;28;20069;-61
2022/10/01 04:13:37;;;;;;;4.35;2.55;;;11.40;99.90;;;;;;5051909;28;20047;-61
2022/10/01 04:16:04;;;;;;;2.90;2.13;;;11.40;99.90;;;;;;5052058;28;20040;-61
2022/10/01 04:18:31;;;;;;;3.08;2.30;;;11.50;99.90;;;;;;5051303;28;20052;-62
2022/10/01 04:20:57;;;;;;;2.38;2.00;;;11.50;99.90;;;;;;5051461;28;20044;-61
2022/10/01 04:23:23;;;;;;;2.00;1.80;;;11.50;99.90;;;;;;5051006;28;20033;-61
2022/10/01 04:25:49;;;;;;;3.60;1.80;;;11.60;99.90;;;;;;5051217;28;20033;-61
2022/10/01 04:28:16;;;;;;;2.33;1.90;;;11.60;99.90;;;;;;5051099;28;20045;-61
2022/10/01 04:30:43;;;;;;;3.35;2.00;;;11.60;99.90;;;;;;5051618;28;20374;-61
2022/10/01 04:33:12;;;;;;;1.85;1.60;;;11.60;99.90;;;;;;5050850;28;20128;-62
2022/10/01 04:35:38;;;;;;;1.75;1.60;;;11.70;99.90;;;;;;5051439;28;20159;-62
2022/10/01 04:38:25;;;;;;;1.67;1.55;;;11.70;99.90;;;;;;5050603;28;20354;-61
2022/10/01 04:40:51;;;;;;;2.85;1.90;;;11.70;99.90;;;;;;5050323;28;20531;-63
2022/10/01 04:43:16;;;;;;;3.00;1.88;;;11.80;99.90;;;;;;5051316;28;20037;-62
2022/10/01 04:45:42;;;;;;;2.42;2.05;;;11.80;99.90;;;;;;5051141;28;20037;-62
2022/10/01 04:48:07;;;;;;;3.15;2.20;;;11.80;99.90;;;;;;5050959;28;20037;-61
2022/10/01 04:50:33;;;;;;;2.90;2.55;;;11.90;99.90;;;;;;5051378;28;20041;-62
2022/10/01 04:52:59;;;;;;;3.67;2.35;;;11.90;99.90;;;;;;5050390;28;20072;-62
2022/10/01 04:55:24;;;;;;;3.00;2.53;;;11.90;99.90;;;;;;5050847;28;20076;-62
2022/10/01 04:57:50;;;;;;;3.67;2.65;;;12.00;99.90;;;;;;5054384;28;20052;-62
2022/10/01 05:00:19;;;;;;;3.63;2.97;;;12.00;99.90;;;;;;5055021;28;20040;-62
2022/10/01 05:02:47;;;;;;;3.25;2.92;;;12.00;99.90;;;;;;5054568;28;20041;-62
2022/10/01 05:05:14;;;;;;;5.40;3.20;;;12.10;99.90;;;;;;5055387;28;20057;-62
2022/10/01 05:07:40;;;;;;;5.28;3.35;;;12.10;99.90;;;;;;5054853;28;20055;-64
2022/10/01 05:10:10;;;;;;;3.67;3.30;;;12.10;99.90;;;;;;5054792;28;20033;-62
2022/10/01 05:12:35;;;;;;;4.05;3.63;;;12.10;99.90;;;;;;5054051;28;20617;-62
2022/10/01 05:15:02;;;;;;;5.55;3.70;;;12.10;99.90;;;;;;5054754;28;20141;-62
2022/10/01 05:17:28;;;;;;;4.78;3.47;;;12.10;99.90;;;;;;5054064;28;20094;-62
2022/10/01 05:19:54;;;;;;;5.22;3.55;;;12.20;99.90;;;;;;5054427;28;20117;-62
2022/10/01 05:22:19;;;;;;;4.80;3.80;;;12.20;99.90;;;;;;5054057;28;20507;-62
2022/10/01 05:24:46;;;;;;;4.97;4.10;;;12.20;99.90;;;;;;5054136;28;20048;-63
2022/10/01 05:27:12;;;;;;;5.28;4.40;;;12.20;99.90;;;;;;5053796;28;20040;-62
2022/10/01 05:29:41;;;;;;;5.50;4.30;;;12.30;99.90;;;;;;5054558;28;20067;-62
2022/10/01 05:32:08;;;;;;;4.85;3.80;;;12.30;99.90;;;;;;5054590;28;20041;-62
2022/10/01 05:34:34;;;;;;;4.22;3.83;;;12.20;99.90;;;;;;5054475;28;20542;-62
2022/10/01 05:36:59;;;;;;;5.65;4.65;;;12.20;99.90;;;;;;5054342;28;20279;-62
2022/10/01 05:39:25;;;;;;;6.03;4.30;;;12.20;99.90;;;;;;5052926;28;20053;-63
2022/10/01 05:41:54;;;;;;;6.18;4.85;;;12.20;99.90;;;;;;5054334;28;20045;-62
2022/10/01 05:44:22;;;;;;;5.13;4.63;;;12.10;99.90;;;;;;5054091;28;20029;-62
2022/10/01 05:46:47;;;;;;;6.50;4.75;;;12.10;99.90;;;;;;5053852;28;20044;-62
2022/10/01 05:49:14;;;;;;;5.97;5.22;;;12.10;99.90;;;;;;5069604;28;20037;-62
2022/10/01 05:51:40;;;;;;;7.72;5.38;;;12.10;99.90;;;;;;5053800;28;20477;-62
2022/10/01 05:54:06;;;;;;;7.93;5.35;;;12.10;99.90;;;;;;5054027;28;20029;-62
2022/10/01 05:56:32;;;;;;;6.20;5.60;;;12.20;99.90;;;;;;5053342;28;20102;-62
2022/10/01 05:58:58;;;;;;;5.80;5.15;;;12.20;99.90;;;;;;5052880;28;20044;-62
2022/10/01 06:01:24;;;;;;;6.78;5.43;;;12.20;99.90;;;;;;5052310;28;20052;-62
2022/10/01 06:03:51;;;;;;;6.47;5.60;;;12.20;99.90;;;;;;5054134;28;20037;-62
2022/10/01 06:06:26;;;;;;;6.47;5.88;;;12.20;99.90;;;;;;5053689;28;20517;-62
2022/10/01 06:08:52;;;;;;;6.57;5.97;;;12.20;99.90;;;;;;5053137;28;20040;-62
2022/10/01 06:11:17;;;;;;;6.22;5.63;;;12.20;99.90;;;;;;5052755;28;20465;-62
2022/10/01 06:13:44;;;;;;;7.10;6.03;;;12.30;99.90;;;;;;5052242;28;20373;-62
2022/10/01 06:16:10;;;;;;;7.70;6.00;;;12.30;99.90;;;;;;5051828;28;20053;-63
2022/10/01 06:18:36;;;;;;;6.75;6.07;;;12.40;99.90;;;;;;5053225;28;20049;-62
2022/10/01 06:21:02;;;;;;;6.50;5.90;;;12.50;99.90;;;;;;5052998;28;20040;-62
2022/10/01 06:23:27;;;;;;;6.47;5.30;;;12.50;99.90;;;;;;5053367;28;20033;-62
2022/10/01 06:25:53;;;;;;;6.72;5.63;;;12.60;99.90;;;;;;5053205;28;20033;-63
2022/10/01 06:28:18;;;;;;;7.25;5.40;;;12.60;99.90;;;;;;5051249;28;20573;-63
2022/10/01 06:30:44;;;;;;;5.90;5.30;;;12.70;99.90;;;;;;5052493;28;20170;-63
2022/10/01 06:33:15;;;;;;;8.18;5.82;;;12.70;99.90;;;;;;5052685;28;20069;-63
2022/10/01 06:35:46;;;;;;;6.93;5.50;;;12.70;99.90;;;;;;5052967;28;20048;-63
2022/10/01 06:38:12;;;;;;;8.80;6.25;;;12.70;99.90;;;;;;5051748;28;20139;-63
2022/10/01 06:40:38;;;;;;;6.65;5.53;;;12.60;99.90;;;;;;5052673;28;20056;-63
2022/10/01 06:43:06;;;;;;;6.97;5.47;;;12.60;99.90;;;;;;5053261;28;20041;-63
2022/10/01 06:45:37;;;;;;;8.00;6.30;;;12.60;99.90;;;;;;5051409;28;20041;-63
2022/10/01 06:48:03;;;;;;;7.40;6.32;;;12.60;99.90;;;;;;5051270;28;20147;-63
2022/10/01 06:50:30;;;;;;;7.18;5.75;;;12.60;99.90;;;;;;5052575;28;20090;-62
2022/10/01 06:52:56;;;;;;;7.85;6.35;;;12.60;99.90;;;;;;5052841;28;20060;-63
2022/10/01 06:55:25;;;;;;;9.38;6.20;;;12.70;99.90;;;;;;5052440;28;20394;-63
2022/10/01 06:57:55;;;;;;;9.57;5.97;;;12.80;99.90;;;;;;5050956;28;20087;-62
2022/10/01 07:00:22;;;;;;;7.60;5.68;;;12.90;99.90;;;;;;5052505;28;20453;-62
2022/10/01 07:02:47;;;;;;;7.00;5.53;;;13.00;99.90;;;;;;5052166;28;20098;-62
2022/10/01 07:05:14;;;;;;;7.03;5.60;;;13.00;99.90;;;;;;5052495;28;20442;-62
2022/10/01 07:07:39;;;;;;;10.13;6.22;;;13.00;99.90;;;;;;5051708;28;20032;-62
2022/10/01 07:10:07;;;;;;;8.25;5.75;;;13.10;99.90;;;;;;5052192;28;20446;-63
2022/10/01 07:12:34;;;;;;;9.07;5.70;;;13.20;99.90;;;;;;5051475;28;20047;-62
2022/10/01 07:15:00;;;;;;;7.72;5.40;;;13.30;99.90;;;;;;5052051;28;20130;-62
2022/10/01 07:17:26;;;;;;;10.18;5.50;;;13.40;99.90;;;;;;5051988;28;20096;-61
2022/10/01 07:19:51;;;;;;;5.88;4.55;;;13.40;99.90;;;;;;5051783;28;20049;-62
2022/10/01 07:22:18;;;;;;;7.10;4.57;;;13.50;99.90;;;;;;5052252;28;20044;-63
2022/10/01 07:24:44;;;;;;;7.22;4.07;;;13.50;99.90;;;;;;5051034;28;20060;-62
2022/10/01 07:27:11;;;;;;;8.63;4.18;;;13.60;99.90;;;;;;5051947;28;20338;-62
2022/10/01 07:29:36;;;;;;;11.52;4.32;;;13.60;99.90;;;;;;5051385;28;20537;-62
2022/10/01 07:32:07;;;;;;;5.50;3.55;;;13.70;99.90;;;;;;5053213;28;20125;-62
2022/10/01 07:34:34;;;;;;;10.27;4.15;;;13.70;99.90;;;;;;5051070;28;20060;-62
2022/10/01 07:37:01;;;;;;;7.97;3.40;;;13.90;99.90;;;;;;5052467;28;20060;-62
2022/10/01 07:39:26;;;;;;;7.30;3.47;;;14.00;99.90;;;;;;5050861;28;20045;-62
2022/10/01 07:41:52;;;;;;;8.80;3.78;;;14.00;99.90;;;;;;5052201;28;20476;-67
2022/10/01 07:44:18;;;;;;;6.10;3.40;;;14.10;99.90;;;;;;5051919;28;20043;-62
2022/10/01 07:46:45;;;;;;;9.18;3.65;;;14.10;99.90;;;;;;5051518;28;20370;-62
2022/10/01 07:49:11;;;;;;;11.02;3.13;;;14.20;99.90;;;;;;5052124;28;20029;-62
2022/10/01 07:51:36;;;;;;;6.70;3.33;;;14.30;99.90;;;;;;5051864;28;20025;-62
2022/10/01 07:54:03;;;;;;;9.45;3.47;;;14.30;99.90;;;;;;5051983;28;20047;-62
2022/10/01 07:56:28;;;;;;;8.05;3.20;;;14.40;99.90;;;;;;5051737;28;20474;-63
2022/10/01 07:58:55;;;;;;;7.18;3.13;;;14.50;99.90;;;;;;5052261;28;20131;-63
2022/10/01 08:01:21;;;;;;;6.53;3.38;;;14.50;99.90;;;;;;5050922;28;20726;-62
2022/10/01 08:03:48;;;;;;;9.25;2.92;;;14.60;99.90;;;;;;5051817;28;20033;-62
2022/10/01 08:06:15;;;;;;;8.90;3.00;;;14.50;99.90;;;;;;5051239;28;20045;-62
2022/10/01 08:08:40;;;;;;;9.70;3.15;;;14.50;99.90;;;;;;5051613;28;20044;-62
2022/10/01 08:11:09;;;;;;;9.35;2.83;;;14.50;99.90;;;;;;5050036;28;20074;-62
2022/10/01 08:13:36;;;;;;;9.38;2.90;;;14.50;99.90;;;;;;5065127;28;20370;-62
2022/10/01 08:16:04;;;;;;;7.57;2.88;;;14.50;99.90;;;;;;5052178;28;20119;-63
2022/10/01 08:18:30;;;;;;;11.57;3.00;;;14.50;99.90;;;;;;5052151;28;20111;-62
2022/10/01 08:20:58;;;;;;;9.80;2.90;;;14.60;99.90;;;;;;5052331;28;20152;-62
2022/10/01 08:23:24;;;;;;;9.10;2.78;;;14.60;99.90;;;;;;5051505;28;20060;-62
2022/10/01 08:25:49;;;;;;;13.13;2.90;;;14.70;99.90;;;;;;5050058;28;20029;-62
2022/10/01 08:28:15;;;;;;;7.93;2.72;;;14.80;99.90;;;;;;5049976;28;20048;-62
2022/10/01 08:30:41;;;;;;;10.35;2.97;;;14.90;99.90;;;;;;5050257;28;20048;-64
2022/10/01 08:33:10;;;;;;;8.38;2.67;;;15.00;99.90;;;;;;5050102;28;20045;-62
2022/10/01 08:35:40;;;;;;;7.65;2.40;;;15.30;99.90;;;;;;5051644;28;20415;-62
2022/10/01 08:38:06;;;;;;;11.20;2.85;;;15.50;99.90;;;;;;5051560;28;20099;-63
2022/10/01 08:40:35;;;;;;;11.77;3.28;;;15.70;99.90;;;;;;5050197;28;20068;-62
2022/10/01 08:43:32;;;;;;;9.13;2.60;;;15.90;99.90;;;;;;5050059;28;20079;-62
2022/10/01 08:46:11;;;;;;;10.10;2.22;;;15.80;99.90;;;;;;5051145;28;20045;-62
2022/10/01 08:48:50;;;;;;;10.15;2.50;;;15.70;99.90;;;;;;5052017;28;20104;-63
2022/10/01 08:51:18;;;;;;;7.13;2.30;;;15.60;99.90;;;;;;5050399;28;20075;-62
2022/10/01 08:53:56;;;;;;;7.57;2.58;;;15.50;99.90;;;;;;5051894;28;20572;-62
2022/10/01 08:56:28;;;;;;;6.97;2.58;;;15.40;99.90;;;;;;5052101;28;20041;-62
2022/10/01 08:59:01;;;;;;;5.30;1.80;;;15.30;99.90;;;;;;5051841;28;20099;-62
2022/10/01 09:01:28;;;;;;;3.85;1.73;;;15.30;99.90;;;;;;5051956;28;20056;-62
2022/10/01 09:03:54;;;;;;;5.32;1.98;;;15.30;99.90;;;;;;5042755;28;20041;-62
2022/10/01 09:06:26;;;;;;;5.85;2.10;;;15.20;99.90;;;;;;5051353;28;20105;-62
2022/10/01 09:09:24;;;;;;;9.57;2.75;;;15.30;99.90;;;;;;5040675;28;20057;-62
2022/10/01 09:12:23;;;;;;;6.50;2.05;;;15.50;99.90;;;;;;5047296;28;20037;-62
2022/10/01 09:15:07;;;;;;;4.63;1.45;;;15.60;99.90;;;;;;5050725;28;20086;-61
2022/10/01 09:18:12;;;;;;;5.10;1.42;;;15.60;99.90;;;;;;5038276;28;20069;-63
2022/10/01 09:20:44;;;;;;;4.72;1.48;;;15.70;99.90;;;;;;5039002;28;20045;-61
2022/10/01 09:23:28;;;;;;;5.68;1.20;;;15.70;99.90;;;;;;5051033;28;20366;-62
2022/10/01 09:25:56;;;;;;;6.63;1.55;;;15.80;99.90;;;;;;5055560;28;20068;-62
2022/10/01 09:28:26;;;;;;;5.72;1.58;;;15.80;99.90;;;;;;5050015;28;20045;-62
2022/10/01 09:31:16;;;;;;;8.13;1.98;;;15.90;99.90;;;;;;5050804;28;20059;-63
2022/10/01 09:33:56;;;;;;;6.90;1.90;;;16.00;99.90;;;;;;5051043;28;20378;-62
2022/10/01 09:36:38;;;;;;;10.98;1.95;;;16.10;99.90;;;;;;5049681;28;20040;-62
2022/10/01 09:39:26;;;;;;;8.82;2.20;;;16.20;99.90;;;;;;5050469;28;20041;-63
2022/10/01 09:41:51;;;;;;;8.52;2.20;;;16.30;99.90;;;;;;5050980;28;20076;-60
2022/10/01 09:44:25;;;;;;;6.75;2.30;;;16.50;99.90;;;;;;5053556;28;20041;-61
2022/10/01 09:46:51;;;;;;;5.07;1.90;;;16.70;99.90;;;;;;5054156;28;20036;-63
2022/10/01 09:49:33;;;;;;;9.80;2.30;;;16.80;99.90;;;;;;5054405;28;20167;-65
2022/10/01 09:52:12;;;;;;;7.00;2.30;;;17.00;99.90;;;;;;5054396;28;20458;-63
2022/10/01 09:54:41;;;;;;;10.43;2.85;;;17.10;99.90;;;;;;5053596;28;20059;-63
2022/10/01 09:57:17;;;;;;;10.30;2.53;;;17.10;99.90;;;;;;5053990;28;20432;-63
2022/10/01 09:59:49;;;;;;;9.30;2.70;;;17.30;99.90;;;;;;5054443;28;20072;-63
2022/10/01 10:02:23;;;;;;;9.13;2.33;;;17.40;99.90;;;;;;5053924;28;20524;-64
2022/10/01 10:05:06;;;;;;;9.38;2.85;;;17.50;99.90;;;;;;5053298;28;20037;-63
2022/10/01 10:07:33;;;;;;;9.75;2.05;;;17.50;99.90;;;;;;5053452;28;20379;-63
2022/10/01 10:10:21;;;;;;;9.32;2.40;;;17.50;99.90;;;;;;5053632;28;20485;-63
2022/10/01 10:12:52;;;;;;;13.85;2.95;;;17.40;99.90;;;;;;5051745;28;20124;-63
2022/10/01 10:15:21;;;;;;;12.07;3.05;;;17.30;99.90;;;;;;5052246;28;20064;-63
2022/10/01 10:17:50;;;;;;;13.05;3.33;;;17.10;99.90;;;;;;5050079;28;20082;-60
2022/10/01 10:20:43;;;;;;;9.93;2.80;;;17.10;99.90;;;;;;5051763;28;20488;-62
2022/10/01 10:23:18;;;;;;;11.82;3.40;;;16.90;99.90;;;;;;5046144;28;20377;-62
2022/10/01 10:26:01;;;;;;;11.75;3.15;;;16.90;99.90;;;;;;5050022;28;20446;-61
2022/10/01 10:28:38;;;;;;;16.55;3.65;;;16.90;99.90;;;;;;5035143;28;20033;-62
2022/10/01 10:31:09;;;;;;;10.68;3.15;;;17.00;99.90;;;;;;5031507;28;20039;-61
2022/10/01 10:33:36;;;;;;;13.05;3.35;;;16.70;99.90;;;;;;5053612;28;20045;-62
2022/10/01 10:36:05;;;;;;;9.57;2.83;;;16.50;99.90;;;;;;5052085;28;20056;-61
2022/10/01 10:38:33;;;;;;;8.32;2.10;;;16.30;99.90;;;;;;5052857;28;20049;-62
2022/10/01 10:40:59;;;;;;;8.05;2.35;;;16.00;99.90;;;;;;5034666;28;20179;-61
2022/10/01 10:43:31;;;;;;;6.78;2.00;;;15.90;99.90;;;;;;5052576;28;20469;-61
2022/10/01 10:45:57;;;;;;;9.55;2.47;;;15.70;99.90;;;;;;5052562;28;20041;-62
2022/10/01 10:48:31;;;;;;;9.50;2.67;;;15.80;99.90;;;;;;5052519;28;20040;-62
2022/10/01 10:51:00;;;;;;;13.27;2.65;;;15.80;99.90;;;;;;5051442;28;20039;-63
2022/10/01 10:53:30;;;;;;;15.55;3.20;;;15.80;99.90;;;;;;5050817;28;20477;-62
2022/10/01 10:56:01;;;;;;;12.23;3.38;;;15.80;99.90;;;;;;5052766;28;20477;-62
2022/10/01 10:58:29;;;;;;;16.05;3.17;;;15.70;99.90;;;;;;5047609;28;20048;-62
2022/10/01 11:00:59;;;;;;;8.00;2.47;;;15.40;99.90;;;;;;5052027;28;20041;-61
2022/10/01 11:03:28;;;;;;;10.00;2.22;;;15.00;99.90;;;;;;5053194;28;20080;-61
2022/10/01 11:06:01;;;;;;;5.57;1.52;;;14.60;99.90;;;;;;5044446;28;20069;-61
2022/10/01 11:08:27;;;;;;;9.48;2.17;;;14.40;99.90;;;;;;5051958;28;20354;-61
2022/10/01 11:11:29;;;;;;;6.28;2.17;;;14.20;99.90;;;;;;5053199;28;20045;-63
2022/10/01 11:14:14;;;;;;;9.30;2.40;;;14.10;99.90;;;;;;5045580;28;20052;-60
2022/10/01 11:16:40;;;;;;;12.00;2.83;;;14.10;99.90;;;;;;5047662;28;20167;-61
2022/10/01 11:19:34;;;;;;;7.97;2.10;;;14.00;99.90;;;;;;5041588;28;20132;-60
2022/10/01 11:22:32;;;;;;;8.55;2.28;;;14.00;99.90;;;;;;5051156;28;20037;-61
2022/10/01 11:25:00;;;;;;;6.30;1.65;;;13.90;99.90;;;;;;5048642;28;20178;-61
2022/10/01 11:27:26;;;;;;;7.20;1.65;;;13.90;99.90;;;;;;5051525;28;20056;-61
2022/10/01 11:30:16;;;;;;;5.05;1.65;;;13.90;99.90;;;;;;5053305;28;20051;-60
2022/10/01 11:32:53;;;;;;;3.63;1.40;;;13.90;99.90;;;;;;5049271;28;20053;-60
2022/10/01 11:35:21;;;;;;;8.00;1.83;;;14.00;99.90;;;;;;5045061;28;20041;-61
2022/10/01 11:38:17;;;;;;;7.63;1.80;;;14.10;99.90;;;;;;5050775;28;20056;-60
2022/10/01 11:40:47;;;;;;;6.78;1.70;;;14.30;99.90;;;;;;5052766;28;20045;-61
2022/10/01 11:43:20;;;;;;;10.25;2.10;;;14.50;99.90;;;;;;5052650;28;20033;-61
2022/10/01 11:45:56;;;;;;;11.25;2.42;;;14.70;99.90;;;;;;5053155;28;20041;-60
2022/10/01 11:48:33;;;;;;;11.30;2.78;;;14.90;99.90;;;;;;5052411;28;20450;-61
2022/10/01 11:51:08;;;;;;;8.00;2.58;;;15.00;99.90;;;;;;5052726;28;20041;-60
2022/10/01 11:53:46;;;;;;;11.43;2.25;;;15.20;99.90;;;;;;5052787;28;20036;-61
2022/10/01 11:59:20;;;;;;;11.52;3.25;;;15.40;99.90;;;;;;5052960;28;20056;-60
2022/10/01 12:02:00;;;;;;;13.93;3.55;;;15.40;99.90;;;;;;5052334;28;20034;-61
2022/10/01 12:04:32;;;;;;;11.45;2.88;;;15.50;99.90;;;;;;5035033;28;20060;-61
2022/10/01 12:07:09;;;;;;;12.27;3.10;;;15.50;99.90;;;;;;5038702;28;20091;-61
2022/10/01 12:10:02;;;;;;;7.68;2.67;;;15.50;99.90;;;;;;5052993;28;20064;-61
2022/10/01 12:12:56;;;;;;;18.13;3.28;;;15.50;99.90;;;;;;5042721;28;20045;-60
2022/10/01 12:15:25;;;;;;;10.50;2.78;;;15.50;99.90;;;;;;5051966;28;20040;-61
2022/10/01 12:17:58;;;;;;;13.77;4.00;;;15.30;99.90;;;;;;5052767;28;20055;-61
2022/10/01 12:20:31;;;;;;;12.57;3.00;;;15.20;99.90;;;;;;5051854;28;20115;-60
2022/10/01 12:22:58;;;;;;;10.60;3.05;;;15.20;99.90;;;;;;5051378;28;20075;-60
2022/10/01 12:25:47;;;;;;;12.90;3.30;;;15.20;99.90;;;;;;5052359;28;20097;-61
2022/10/01 12:28:21;;;;;;;16.45;3.38;;;15.30;99.90;;;;;;5052865;28;20044;-61
2022/10/01 12:31:07;;;;;;;16.65;2.95;;;15.50;99.90;;;;;;5052391;28;20040;-59
2022/10/01 12:33:40;;;;;;;11.07;2.88;;;15.70;99.90;;;;;;5052722;28;20412;-60
2022/10/01 12:36:27;;;;;;;15.27;3.20;;;15.70;99.90;;;;;;5052622;28;20033;-59
2022/10/01 12:39:04;;;;;;;11.68;2.92;;;15.80;99.90;;;;;;5051259;28;20091;-61
2022/10/01 12:41:40;;;;;;;10.55;3.20;;;15.90;99.90;;;;;;5051624;28;20048;-61
2022/10/01 12:44:36;;;;;;;15.32;3.55;;;16.00;99.90;;;;;;5051493;28;20106;-60
2022/10/01 12:47:19;;;;;;;8.80;3.28;;;16.20;99.90;;;;;;5042681;28;20056;-61
2022/10/01 12:50:03;;;;;;;14.15;3.20;;;16.20;99.90;;;;;;5052443;28;20029;-60
2022/10/01 12:53:08;;;;;;;11.68;3.17;;;16.20;99.90;;;;;;5051361;28;20087;-61
2022/10/01 12:55:55;;;;;;;12.95;2.35;;;16.20;99.90;;;;;;5041693;28;20090;-61
2022/10/01 12:58:46;;;;;;;13.60;3.80;;;16.10;99.90;;;;;;5050781;28;20127;-61
2022/10/01 13:01:20;;;;;;;12.85;2.88;;;16.00;99.90;;;;;;5051894;28;20037;-61
2022/10/01 13:04:22;;;;;;;11.60;3.15;;;15.90;99.90;;;;;;5051436;28;20029;-61
2022/10/01 13:07:19;;;;;;;12.55;3.20;;;15.90;99.90;;;;;;5050313;28;20036;-61
2022/10/01 13:09:49;;;;;;;10.55;2.65;;;15.80;99.90;;;;;;5051224;28;20304;-61